Главная страница
METAR-TAF:

METAR-TAF

Аэропорты :

Орск, Россия

широта: 51-04-18N, долгота: 058-35-48E, высота над уровнем моря: 277 м

Текущие метеонаблюдения

Эта сводка был подготовлена 33 минут назад, в 21:00 UTC
Ветер 8 Узел от западный-юго-западный
Температура -1°C
Влажность 86%
Давление 1013 hPa
Видимость 10 км и более
Нет облачности ниже 1500 м, и нет кучево-дождевой облачности

METAR: UWOR 202100Z 25004MPS CAVOK M01/M03 Q1013 R25/CLRD65 NOSIG RMK QFE736/0981

Время: 02:33 (21:33 UTC)

Прогноз

Эта сводка был подготовлена 1 час и 33 минут назад, в 20:00 UTC
Прогноз действительный с 20-го 21 UTC до 21-го 06 UTC
Ветер 8 Узел от западный с порывами до 17 Узел
Видимость 10 км и более
Рассеянная облачность на высоте 2000 фута
временами
С 20-го 21 UTC до 21-го 03 UTC
Ветер 6 Узел от западный с порывами до 16 Узел

TAF: UWOR 202000Z 2021/2106 28004G09MPS 9999 BKN020 TEMPO 2021/2103 26003G08MPS

Метеонаблюдения и прогнозы для более 4000 аэропортов (сводки METAR и TAF).

Имеющиеся станции представлены на карте желтыми и красными точками.

Чтобы увидеть название станции, наведите на нее мышь.

Затем щелкните, чтобы увидеть метеонаблюдения и метеопрогнозы.

Управление картой: чтобы увеличить масштаб, щелкните зеленые кнопки с черным крестиком; чтобы уменьшить масштаб, щелкните зеленую кнопку с тире; для просмотра соседних карт щелкайте зеленые стрелки.


METAR-TAF: